createdAt,value
2023-03-28T00:00:10.588Z,18609.6914
2023-03-28T00:01:12.068Z,18609.8457
2023-03-28T00:02:13.408Z,18611.0762
2023-03-28T00:03:14.834Z,18610.5391
2023-03-28T00:04:16.353Z,18609.3086
2023-03-28T00:05:17.707Z,18608.3086
2023-03-28T00:06:19.238Z,18605.4609
2023-03-28T00:07:20.538Z,18607.4609
2023-03-28T00:08:21.975Z,18609.8457
2023-03-28T00:09:23.414Z,18606.6152
2023-03-28T00:10:24.808Z,18608.6152
2023-03-28T00:11:26.239Z,18609.8457
2023-03-28T00:12:27.760Z,18606.1543
2023-03-28T00:13:29.076Z,18608.1543
2023-03-28T00:14:30.492Z,18609.3848
2023-03-28T00:15:31.964Z,18608.2305
2023-03-28T00:16:33.434Z,18609.3086
2023-03-28T00:17:34.782Z,18608.3848
2023-03-28T00:18:36.199Z,18606.0762
2023-03-28T00:19:37.612Z,18606.8457
2023-03-28T00:20:39.093Z,18607.6152
2023-03-28T00:21:40.468Z,18612.6914
2023-03-28T00:22:41.916Z,18604.7695
2023-03-28T00:23:43.336Z,18606.6152
2023-03-28T00:24:44.768Z,18602.3086
2023-03-28T00:25:46.190Z,18608.5391
2023-03-28T00:26:47.636Z,18605.6914
2023-03-28T00:27:49.042Z,18609.1543
2023-03-28T00:28:50.483Z,18604.2305
2023-03-28T00:29:51.896Z,18605.4609
2023-03-28T00:30:53.392Z,18605.2305
2023-03-28T00:31:54.730Z,18604.2305
2023-03-28T00:32:56.199Z,18603.5391
2023-03-28T00:33:57.578Z,18601.2305
2023-03-28T00:34:59.051Z,18606.0762
2023-03-28T00:36:00.680Z,18606.0000
2023-03-28T00:37:01.849Z,18604.3086
2023-03-28T00:38:03.281Z,18606.6914
2023-03-28T00:39:04.736Z,18603.2305
2023-03-28T00:40:06.118Z,18599.7695
2023-03-28T00:41:07.539Z,18605.7695
2023-03-28T00:42:08.946Z,18606.0000
2023-03-28T00:43:10.387Z,18603.6152
2023-03-28T00:44:11.815Z,18607.3086
2023-03-28T00:45:13.234Z,18606.1543
2023-03-28T00:46:14.827Z,18602.9238
2023-03-28T00:47:16.088Z,18607.6152
2023-03-28T00:48:17.587Z,18608.1543
2023-03-28T00:49:18.946Z,18605.6152
2023-03-28T00:50:20.431Z,18604.8457
2023-03-28T00:51:21.794Z,18604.5391
2023-03-28T00:52:23.213Z,18602.2305
2023-03-28T00:53:24.690Z,18604.5391
2023-03-28T00:54:26.053Z,18602.6152
2023-03-28T00:55:27.532Z,18604.9238
2023-03-28T00:56:28.904Z,18602.7695
2023-03-28T00:57:30.339Z,18606.5391
2023-03-28T00:58:31.748Z,18604.3086
2023-03-28T00:59:33.202Z,18604.0000
2023-03-28T01:00:34.584Z,18599.6152
2023-03-28T01:01:36.033Z,18601.6914
2023-03-28T01:02:37.522Z,18604.3848
2023-03-28T01:03:38.993Z,18603.2305
2023-03-28T01:04:40.328Z,18603.2305
2023-03-28T01:05:41.711Z,18604.3848
2023-03-28T01:06:43.108Z,18604.0762
2023-03-28T01:07:44.533Z,18599.3848
2023-03-28T01:08:46.039Z,18604.2305
2023-03-28T01:09:47.384Z,18600.8457
2023-03-28T01:10:48.785Z,18600.7695
2023-03-28T01:11:50.225Z,18602.0000
2023-03-28T01:12:51.663Z,18603.2305
2023-03-28T01:13:53.147Z,18600.4609
2023-03-28T01:14:54.500Z,18601.0762
2023-03-28T01:15:55.968Z,18600.0000
2023-03-28T01:16:57.403Z,18604.8457
2023-03-28T01:17:58.851Z,18601.2305
2023-03-28T01:19:00.189Z,18598.2305
2023-03-28T01:20:01.640Z,18600.5391
2023-03-28T01:21:03.039Z,18600.3848
2023-03-28T01:22:04.468Z,18598.8457
2023-03-28T01:23:05.909Z,18598.6914
2023-03-28T01:24:11.459Z,18596.9238
2023-03-28T01:25:08.730Z,18598.8340
2023-03-28T01:26:10.155Z,18599.7695
2023-03-28T01:27:11.592Z,18597.8457
2023-03-28T01:28:13.027Z,18601.0762
2023-03-28T01:29:14.426Z,18599.3848
2023-03-28T01:30:15.854Z,18599.9238
2023-03-28T01:31:17.286Z,18595.0762
2023-03-28T01:32:18.733Z,18601.1543
2023-03-28T01:33:20.098Z,18598.7695
2023-03-28T01:34:21.533Z,18602.9238
2023-03-28T01:35:22.944Z,18598.6152
2023-03-28T01:36:33.804Z,18598.1543
2023-03-28T01:37:25.885Z,18596.2500
2023-03-28T01:38:27.236Z,18595.1543
2023-03-28T01:39:28.637Z,18599.3848
2023-03-28T01:40:30.075Z,18596.1543
2023-03-28T01:41:31.477Z,18592.2305
2023-03-28T01:42:32.910Z,18595.3086
2023-03-28T01:43:34.350Z,18596.3086
2023-03-28T01:44:35.738Z,18596.0000
2023-03-28T01:45:37.236Z,18596.0762
2023-03-28T01:46:38.617Z,18599.0000
2023-03-28T01:47:40.052Z,18597.0000
2023-03-28T01:48:41.442Z,18595.4609
2023-03-28T01:49:42.852Z,18594.9238
2023-03-28T01:50:44.282Z,18596.4609
2023-03-28T01:51:45.707Z,18596.3848
2023-03-28T01:52:47.164Z,18595.3848
2023-03-28T01:53:48.607Z,18599.5391
2023-03-28T01:54:49.970Z,18596.3086
2023-03-28T01:55:51.386Z,18595.9238
2023-03-28T01:56:52.917Z,18592.9238
2023-03-28T01:57:54.240Z,18595.2305
2023-03-28T01:58:55.664Z,18596.7695
2023-03-28T01:59:57.072Z,18593.0762
2023-03-28T02:00:58.560Z,18594.5391
2023-03-28T02:01:59.943Z,18592.8457
2023-03-28T02:03:01.452Z,18593.4609
2023-03-28T02:04:02.759Z,18596.0762
2023-03-28T02:05:04.210Z,18594.2305
2023-03-28T02:06:05.620Z,18595.6914
2023-03-28T02:07:07.124Z,18596.0000
2023-03-28T02:08:08.600Z,18596.3848
2023-03-28T02:09:09.972Z,18593.8457
2023-03-28T02:10:11.372Z,18592.1543
2023-03-28T02:11:12.837Z,18596.0000
2023-03-28T02:12:14.235Z,18591.2305
2023-03-28T02:13:15.658Z,18593.5391
2023-03-28T02:14:17.077Z,18591.1543
2023-03-28T02:15:18.508Z,18592.3848
2023-03-28T02:16:19.943Z,18593.3086
2023-03-28T02:17:21.385Z,18593.5391
2023-03-28T02:18:22.749Z,18593.2305
2023-03-28T02:19:24.191Z,18594.8457
2023-03-28T02:20:25.613Z,18594.5391
2023-03-28T02:21:27.045Z,18592.3848
2023-03-28T02:22:28.464Z,18590.0762
2023-03-28T02:23:29.895Z,18590.7695
2023-03-28T02:24:31.302Z,18592.6152
2023-03-28T02:25:32.818Z,18591.0000
2023-03-28T02:26:34.162Z,18590.0762
2023-03-28T02:27:35.614Z,18592.3086
2023-03-28T02:28:37.017Z,18589.1543
2023-03-28T02:29:38.428Z,18589.8457
2023-03-28T02:30:39.840Z,18589.9238
2023-03-28T02:31:41.324Z,18589.9238
2023-03-28T02:32:42.777Z,18590.2305
2023-03-28T02:33:44.126Z,18591.3848
2023-03-28T02:34:45.548Z,18589.0000
2023-03-28T02:35:47.090Z,18590.2305
2023-03-28T02:36:48.428Z,18586.0762
2023-03-28T02:37:49.828Z,18590.6152
2023-03-28T02:38:51.303Z,18587.0000
2023-03-28T02:39:52.664Z,18588.0000
2023-03-28T02:40:54.088Z,18584.3848
2023-03-28T02:41:55.536Z,18588.4609
2023-03-28T02:42:56.977Z,18586.3848
2023-03-28T02:43:58.378Z,18586.8457
2023-03-28T02:44:59.800Z,18587.0000
2023-03-28T02:46:01.449Z,18588.5391
2023-03-28T02:47:02.652Z,18585.3086
2023-03-28T02:48:04.089Z,18586.5391
2023-03-28T02:49:05.478Z,18586.2305
2023-03-28T02:50:06.921Z,18583.6914
2023-03-28T02:51:08.352Z,18588.0000
2023-03-28T02:52:09.766Z,18586.9238
2023-03-28T02:53:11.188Z,18586.3848
2023-03-28T02:54:12.604Z,18588.0762
2023-03-28T02:55:14.009Z,18585.7695
2023-03-28T02:56:15.459Z,18586.9238
2023-03-28T02:57:17.034Z,18582.5391
2023-03-28T02:58:18.277Z,18583.1543
2023-03-28T02:59:19.706Z,18583.1543
2023-03-28T03:00:21.130Z,18583.6914
2023-03-28T03:01:22.581Z,18584.6914
2023-03-28T03:02:24.046Z,18584.9238
2023-03-28T03:03:25.411Z,18584.3848
2023-03-28T03:04:26.802Z,18580.6152
2023-03-28T03:05:28.233Z,18583.6152
2023-03-28T03:06:29.649Z,18579.6152
2023-03-28T03:07:31.076Z,18580.7695
2023-03-28T03:08:32.496Z,18579.8457
2023-03-28T03:09:33.934Z,18581.4609
2023-03-28T03:10:35.336Z,18581.3086
2023-03-28T03:11:36.808Z,18585.7695
2023-03-28T03:12:38.190Z,18584.6152
2023-03-28T03:13:39.628Z,18582.8457
2023-03-28T03:14:41.045Z,18585.0000
2023-03-28T03:15:42.493Z,18586.4609
2023-03-28T03:16:43.937Z,18582.6152
2023-03-28T03:17:45.368Z,18585.1543
2023-03-28T03:18:46.741Z,18590.5391
2023-03-28T03:19:48.185Z,18587.1543
2023-03-28T03:20:49.609Z,18581.5391
2023-03-28T03:21:51.017Z,18588.8457
2023-03-28T03:22:52.455Z,18586.6152
2023-03-28T03:23:53.892Z,18585.4609
2023-03-28T03:24:55.291Z,18582.1543
2023-03-28T03:25:56.813Z,18567.3848
2023-03-28T03:26:58.144Z,18569.0000
2023-03-28T03:27:59.586Z,18576.0762
2023-03-28T03:29:01.005Z,18575.5391
2023-03-28T03:30:02.414Z,18576.6914
2023-03-28T03:31:03.906Z,18570.1543
2023-03-28T03:32:05.268Z,18568.6914
2023-03-28T03:33:06.780Z,18568.6152
2023-03-28T03:34:08.140Z,18568.9238
2023-03-28T03:35:09.588Z,18566.5391
2023-03-28T03:36:10.984Z,18567.8457
2023-03-28T03:37:12.394Z,18566.1543
2023-03-28T03:38:13.865Z,18564.9238
2023-03-28T03:39:15.244Z,18566.3848
2023-03-28T03:40:16.692Z,18564.7695
2023-03-28T03:41:18.104Z,18560.8457
2023-03-28T03:42:19.557Z,18566.2305
2023-03-28T03:43:20.955Z,18565.9238
2023-03-28T03:44:22.425Z,18565.0000
2023-03-28T03:45:23.791Z,18565.7695
2023-03-28T03:46:25.282Z,18563.6152
2023-03-28T03:47:26.671Z,18562.6914
2023-03-28T03:48:28.078Z,18566.2305
2023-03-28T03:49:29.530Z,18564.3848
2023-03-28T03:50:30.937Z,18567.0000
2023-03-28T03:51:32.353Z,18562.8457
2023-03-28T03:52:33.778Z,18566.6152
2023-03-28T03:53:35.218Z,18562.8457
2023-03-28T03:54:38.182Z,18566.5391
2023-03-28T03:55:38.058Z,18565.4609
2023-03-28T03:56:39.560Z,18562.9238
2023-03-28T03:57:40.872Z,18562.8457
2023-03-28T03:58:42.307Z,18563.4609
2023-03-28T03:59:43.709Z,18555.0000
2023-03-28T04:00:45.150Z,18553.3848
2023-03-28T04:01:46.584Z,18561.0762
2023-03-28T04:02:48.107Z,18561.3086
2023-03-28T04:03:49.428Z,18561.6152
2023-03-28T04:04:50.838Z,18561.3086
2023-03-28T04:05:52.266Z,18563.0762
2023-03-28T04:06:54.602Z,18563.0762
2023-03-28T04:07:55.295Z,18565.6152
2023-03-28T04:08:56.526Z,18559.2305
2023-03-28T04:09:57.956Z,18563.4609
2023-03-28T04:10:59.385Z,18563.9238
2023-03-28T04:12:00.770Z,18561.1543
2023-03-28T04:13:02.191Z,18557.8457
2023-03-28T04:14:03.606Z,18560.8457
2023-03-28T04:15:05.063Z,18562.0762
2023-03-28T04:16:06.464Z,18563.3086
2023-03-28T04:17:07.897Z,18563.3848
2023-03-28T04:18:09.876Z,18563.5391
2023-03-28T04:19:10.797Z,18562.6914
2023-03-28T04:20:12.152Z,18563.9238
2023-03-28T04:21:13.598Z,18565.3848
2023-03-28T04:22:15.006Z,18563.6914
2023-03-28T04:23:16.423Z,18565.0000
2023-03-28T04:24:17.841Z,18564.3086
2023-03-28T04:25:19.281Z,18566.0000
2023-03-28T04:26:20.667Z,18564.3086
2023-03-28T04:27:22.103Z,18566.1543
2023-03-28T04:28:23.519Z,18558.6914
2023-03-28T04:29:25.017Z,18560.3848
2023-03-28T04:30:26.407Z,18556.7695
2023-03-28T04:31:27.839Z,18553.3086
2023-03-28T04:32:29.265Z,18555.6914
2023-03-28T04:33:30.653Z,18553.7695
2023-03-28T04:34:32.074Z,18556.6152
2023-03-28T04:35:33.589Z,18553.7695
2023-03-28T04:36:34.929Z,18558.8457
2023-03-28T04:37:36.328Z,18554.2305
2023-03-28T04:38:37.767Z,18555.4609
2023-03-28T04:39:39.174Z,18554.9238
2023-03-28T04:40:40.600Z,18553.3848
2023-03-28T04:41:42.119Z,18546.9238
2023-03-28T04:42:43.466Z,18534.6914
2023-03-28T04:43:44.889Z,18529.0000
2023-03-28T04:44:46.322Z,18523.3848
2023-03-28T04:45:47.782Z,18527.0000
2023-03-28T04:46:49.164Z,18528.7695
2023-03-28T04:47:50.618Z,18529.5391
2023-03-28T04:48:56.500Z,18529.6152
2023-03-28T04:49:53.454Z,18531.9160
2023-03-28T04:50:54.852Z,18519.4609
2023-03-28T04:51:56.278Z,18519.9238
2023-03-28T04:52:57.726Z,18520.7695
2023-03-28T04:53:59.119Z,18517.4609
2023-03-28T04:55:00.541Z,18511.1543
2023-03-28T04:56:02.157Z,18503.3848
2023-03-28T04:57:03.405Z,18504.2305
2023-03-28T04:58:04.826Z,18512.5391
2023-03-28T04:59:06.225Z,18511.3848
2023-03-28T05:00:07.682Z,18512.8457
2023-03-28T05:01:09.089Z,18517.8457
2023-03-28T05:02:10.553Z,18522.0762
2023-03-28T05:03:13.156Z,18540.6152
2023-03-28T05:04:13.346Z,18538.5391
2023-03-28T05:05:14.758Z,18529.0762
2023-03-28T05:06:16.198Z,18536.5391
2023-03-28T05:07:17.617Z,18548.3086
2023-03-28T05:08:19.063Z,18556.4609
2023-03-28T05:09:20.460Z,18567.8457
2023-03-28T05:10:21.941Z,18563.6914
2023-03-28T05:11:23.340Z,18557.6914
2023-03-28T05:12:24.761Z,18562.6914
2023-03-28T05:13:26.166Z,18562.2305
2023-03-28T05:14:27.597Z,18566.6914
2023-03-28T05:15:29.014Z,18565.2305
2023-03-28T05:16:30.512Z,18811.0762
2023-03-28T05:17:31.878Z,19215.1543
2023-03-28T05:18:33.275Z,19406.0762
2023-03-28T05:19:34.692Z,19524.8457
2023-03-28T05:20:36.132Z,19618.6152
2023-03-28T05:21:37.552Z,19592.7695
2023-03-28T05:22:39.047Z,19146.3848
2023-03-28T05:23:40.415Z,18974.4609
2023-03-28T05:24:41.842Z,18999.7695
2023-03-28T05:25:43.259Z,18992.1543
2023-03-28T05:26:44.687Z,18958.1543
2023-03-28T05:27:46.130Z,19025.8457
2023-03-28T05:28:47.548Z,19027.8457
2023-03-28T05:29:48.978Z,19020.4609
2023-03-28T05:30:50.400Z,18986.1543
2023-03-28T05:31:51.918Z,18989.4609
2023-03-28T05:32:53.283Z,19015.4609
2023-03-28T05:33:54.679Z,19013.1543
2023-03-28T05:34:56.106Z,19002.6914
2023-03-28T05:35:57.577Z,19003.6914
2023-03-28T05:36:58.995Z,19012.6152
2023-03-28T05:38:00.453Z,19087.1543
2023-03-28T05:39:01.862Z,19046.7695
2023-03-28T05:40:03.236Z,19076.3086
2023-03-28T05:41:04.662Z,19061.3848
2023-03-28T05:42:06.111Z,19060.5391
2023-03-28T05:43:07.549Z,19090.9238
2023-03-28T05:44:08.944Z,19125.7695
2023-03-28T05:45:10.376Z,19139.6152
2023-03-28T05:46:11.812Z,19146.0000
2023-03-28T05:47:13.292Z,19129.0000
2023-03-28T05:48:14.654Z,19103.7695
2023-03-28T05:49:16.087Z,19079.6914
2023-03-28T05:50:17.519Z,19087.6152
2023-03-28T05:51:18.939Z,19071.2305
2023-03-28T05:52:20.378Z,19051.1543
2023-03-28T05:53:21.800Z,19037.0762
2023-03-28T05:54:23.197Z,19037.4609
2023-03-28T05:55:24.661Z,19032.5391
2023-03-28T05:56:26.064Z,19035.1543
2023-03-28T05:57:27.490Z,19051.8457
2023-03-28T05:58:28.910Z,19082.6152
2023-03-28T05:59:30.352Z,19059.6914
2023-03-28T06:00:31.771Z,19045.0762
2023-03-28T06:01:33.190Z,19037.4609
2023-03-28T06:02:34.673Z,19025.1543
2023-03-28T06:03:36.072Z,19022.7695
2023-03-28T06:04:37.517Z,19011.0762
2023-03-28T06:05:38.881Z,18998.9238
2023-03-28T06:06:40.278Z,18994.9238
2023-03-28T06:07:42.844Z,18992.8457
2023-03-28T06:08:43.138Z,18989.8457
2023-03-28T06:09:44.661Z,18989.5391
2023-03-28T06:10:46.098Z,18985.2305
2023-03-28T06:11:47.492Z,18979.5391
2023-03-28T06:12:48.992Z,18975.6152
2023-03-28T06:13:50.359Z,18970.7695
2023-03-28T06:14:51.772Z,18971.1543
2023-03-28T06:15:53.237Z,18971.3848
2023-03-28T06:16:54.646Z,18966.8457
2023-03-28T06:17:56.104Z,18965.3086
2023-03-28T06:19:06.840Z,18960.6152
2023-03-28T06:19:58.956Z,18956.5840
2023-03-28T06:21:00.490Z,18958.3848
2023-03-28T06:22:02.782Z,18959.1543
2023-03-28T06:23:03.135Z,18950.3086
2023-03-28T06:24:04.600Z,18955.0000
2023-03-28T06:25:05.981Z,18949.0000
2023-03-28T06:26:07.414Z,18947.5391
2023-03-28T06:27:08.833Z,18944.2305
2023-03-28T06:28:10.257Z,18939.7695
2023-03-28T06:29:11.671Z,18937.8457
2023-03-28T06:30:13.212Z,18943.7695
2023-03-28T06:31:14.561Z,18935.3086
2023-03-28T06:32:15.970Z,18942.3848
2023-03-28T06:33:17.416Z,18939.4609
2023-03-28T06:34:18.856Z,18938.7695
2023-03-28T06:35:20.253Z,18935.9238
2023-03-28T06:36:21.662Z,18934.3848
2023-03-28T06:37:23.166Z,18911.4609
2023-03-28T06:38:24.545Z,18925.2305
2023-03-28T06:39:25.935Z,18922.0000
2023-03-28T06:40:27.440Z,18923.3086
2023-03-28T06:41:28.846Z,18924.8457
2023-03-28T06:42:30.230Z,18915.7695
2023-03-28T06:43:31.698Z,18917.2305
2023-03-28T06:44:33.092Z,18913.7695
2023-03-28T06:45:34.488Z,18905.0000
2023-03-28T06:46:35.964Z,18903.6152
2023-03-28T06:47:37.409Z,18899.1543
2023-03-28T06:48:38.777Z,18900.3086
2023-03-28T06:49:40.224Z,18896.3848
2023-03-28T06:50:41.623Z,18900.3848
2023-03-28T06:51:43.031Z,18898.6914
2023-03-28T06:52:44.483Z,18896.8457
2023-03-28T06:53:45.914Z,18897.6914
2023-03-28T06:54:48.555Z,18894.5391
2023-03-28T06:55:48.764Z,18895.6914
2023-03-28T06:56:50.230Z,18886.6152
2023-03-28T06:57:51.670Z,18887.9238
2023-03-28T06:58:53.034Z,18879.0000
2023-03-28T06:59:54.450Z,18880.0762
2023-03-28T07:00:55.880Z,18874.4609
2023-03-28T07:01:57.388Z,18881.0762
2023-03-28T07:02:58.826Z,18880.0000
2023-03-28T07:04:00.248Z,18875.8457
2023-03-28T07:05:01.622Z,18874.4609
2023-03-28T07:06:03.012Z,18880.1543
2023-03-28T07:07:04.473Z,18881.9238
2023-03-28T07:08:05.855Z,18869.5391
2023-03-28T07:09:07.355Z,18878.3086
2023-03-28T07:10:08.686Z,18873.3086
2023-03-28T07:11:10.125Z,18867.9238
2023-03-28T07:12:11.525Z,18868.8457
2023-03-28T07:13:12.962Z,18872.2305
2023-03-28T07:14:14.387Z,18871.6914
2023-03-28T07:15:17.771Z,18868.5391
2023-03-28T07:16:17.292Z,18868.2305
2023-03-28T07:17:18.636Z,18867.4609
2023-03-28T07:18:20.064Z,18861.0762
2023-03-28T07:19:21.527Z,18869.0762
2023-03-28T07:20:22.913Z,18863.9238
2023-03-28T07:21:24.338Z,18860.6914
2023-03-28T07:22:25.749Z,18857.6152
2023-03-28T07:23:27.164Z,18858.4609
2023-03-28T07:24:28.785Z,18861.5391
2023-03-28T07:25:29.996Z,18857.9238
2023-03-28T07:26:31.430Z,18856.3848
2023-03-28T07:27:32.863Z,18850.3086
2023-03-28T07:28:34.273Z,18855.5391
2023-03-28T07:29:35.748Z,18851.4609
2023-03-28T07:30:37.129Z,18839.9238
2023-03-28T07:31:38.582Z,18839.6152
2023-03-28T07:32:53.341Z,18844.0762
2023-03-28T07:33:41.423Z,18839.9160
2023-03-28T07:34:42.854Z,18836.1543
2023-03-28T07:35:44.251Z,18839.0000
2023-03-28T07:36:45.661Z,18839.0762
2023-03-28T07:37:47.065Z,18836.0000
2023-03-28T07:38:49.205Z,18836.0762
2023-03-28T07:39:49.935Z,18831.9238
2023-03-28T07:40:51.351Z,18828.6914
2023-03-28T07:41:52.755Z,18830.3086
2023-03-28T07:42:54.175Z,18826.8457
2023-03-28T07:43:55.617Z,18824.6914
2023-03-28T07:44:57.061Z,18820.0000
2023-03-28T07:45:58.448Z,18819.9238
2023-03-28T07:46:59.906Z,18819.9238
2023-03-28T07:48:01.296Z,18819.6914
2023-03-28T07:49:02.713Z,18827.0000
2023-03-28T07:50:04.139Z,18830.3848
2023-03-28T07:51:05.545Z,18832.1543
2023-03-28T07:52:06.958Z,18824.8457
2023-03-28T07:53:08.385Z,18822.8457
2023-03-28T07:54:09.803Z,18814.3848
2023-03-28T07:55:11.251Z,18820.9238
2023-03-28T07:56:12.711Z,18822.3086
2023-03-28T07:57:14.133Z,18814.9238
2023-03-28T07:58:15.473Z,18818.3086
2023-03-28T07:59:16.911Z,18818.5391
2023-03-28T08:00:18.342Z,18817.6914
2023-03-28T08:01:19.795Z,18816.8457
2023-03-28T08:02:21.229Z,18821.6914
2023-03-28T08:03:22.789Z,18819.2305
2023-03-28T08:04:24.033Z,18822.6152
2023-03-28T08:05:25.531Z,18813.0000
2023-03-28T08:06:32.358Z,18813.3848
2023-03-28T08:07:28.298Z,18811.7500
2023-03-28T08:08:29.712Z,18814.4609
2023-03-28T08:09:31.179Z,18812.0000
2023-03-28T08:10:32.553Z,18811.7695
2023-03-28T08:11:34.027Z,18812.6152
2023-03-28T08:12:35.414Z,18816.2305
2023-03-28T08:13:36.857Z,18815.8457
2023-03-28T08:14:38.248Z,18809.6152
2023-03-28T08:15:39.721Z,18805.5391
2023-03-28T08:16:41.091Z,18800.9238
2023-03-28T08:17:42.548Z,18799.1543
2023-03-28T08:18:43.986Z,18795.7695
2023-03-28T08:19:45.372Z,18798.9238
2023-03-28T08:20:46.795Z,18792.4609
2023-03-28T08:21:48.281Z,18804.0762
2023-03-28T08:22:49.669Z,18802.8457
2023-03-28T08:23:51.079Z,18797.2305
2023-03-28T08:24:52.502Z,18798.3848
2023-03-28T08:25:53.934Z,18799.6914
2023-03-28T08:26:55.372Z,18794.3086
2023-03-28T08:27:56.777Z,18788.3086
2023-03-28T08:28:58.257Z,18782.4609
2023-03-28T08:29:59.661Z,18762.3848
2023-03-28T08:31:01.217Z,18761.5391
2023-03-28T08:32:02.474Z,18740.9238
2023-03-28T08:33:04.186Z,18793.7695
2023-03-28T08:34:05.314Z,18940.0762
2023-03-28T08:35:06.729Z,19092.9238
2023-03-28T08:36:08.184Z,19139.0000
2023-03-28T08:37:09.574Z,19206.2305
2023-03-28T08:38:11.527Z,19221.8457
2023-03-28T08:39:12.428Z,19250.6914
2023-03-28T08:40:13.862Z,19244.3086
2023-03-28T08:41:15.269Z,19227.9238
2023-03-28T08:42:16.713Z,19352.0000
2023-03-28T08:43:18.147Z,19419.6914
2023-03-28T08:44:19.589Z,19468.0000
2023-03-28T08:45:20.999Z,19464.8457
2023-03-28T08:46:22.432Z,19137.6914
2023-03-28T08:47:23.823Z,19073.3086
2023-03-28T08:48:25.286Z,19195.6914
2023-03-28T08:49:26.696Z,19274.9238
2023-03-28T08:50:28.122Z,19307.5391
2023-03-28T08:51:29.530Z,19341.2305
2023-03-28T08:52:30.965Z,19258.7695
2023-03-28T08:53:32.439Z,19186.1543
2023-03-28T08:54:33.808Z,19166.2305
2023-03-28T08:55:35.227Z,19126.7695
2023-03-28T08:56:36.677Z,19098.9238
2023-03-28T08:57:38.107Z,18954.4609
2023-03-28T08:58:39.512Z,18923.9238
2023-03-28T08:59:40.915Z,18957.4609
2023-03-28T09:00:42.371Z,18937.7695
2023-03-28T09:01:43.779Z,18904.0000
2023-03-28T09:02:45.285Z,18877.0000
2023-03-28T09:03:46.705Z,18903.4609
2023-03-28T09:04:48.048Z,18927.8457
2023-03-28T09:05:49.514Z,18935.8457
2023-03-28T09:06:50.908Z,18950.6152
2023-03-28T09:07:52.320Z,18974.3848
2023-03-28T09:08:53.767Z,18984.0762
2023-03-28T09:09:55.191Z,18988.6914
2023-03-28T09:10:56.674Z,18995.8457
2023-03-28T09:11:58.048Z,19007.3848
2023-03-28T09:12:59.662Z,18994.3086
2023-03-28T09:14:00.918Z,18984.2305
2023-03-28T09:15:02.361Z,18986.9238
2023-03-28T09:16:03.784Z,18989.5391
2023-03-28T09:17:05.208Z,18979.3086
2023-03-28T09:18:06.827Z,18978.6914
2023-03-28T09:19:08.072Z,18973.6152
2023-03-28T09:20:09.728Z,18972.4609
2023-03-28T09:21:10.926Z,18960.1543
2023-03-28T09:22:15.885Z,18947.0762
2023-03-28T09:23:13.798Z,18946.4609
2023-03-28T09:24:15.166Z,18945.0000
2023-03-28T09:25:16.598Z,18941.1543
2023-03-28T09:26:18.023Z,18929.7695
2023-03-28T09:27:19.478Z,18931.8457
2023-03-28T09:28:20.880Z,18936.0000
2023-03-28T09:29:22.329Z,18939.4609
2023-03-28T09:30:23.760Z,18938.6152
2023-03-28T09:31:27.157Z,18956.7695
2023-03-28T09:32:26.593Z,18961.5391
2023-03-28T09:33:28.038Z,18969.2305
2023-03-28T09:34:29.453Z,18965.0000
2023-03-28T09:35:30.868Z,18973.5391
2023-03-28T09:36:45.596Z,18981.2305
2023-03-28T09:37:33.726Z,18981.2500
2023-03-28T09:38:35.136Z,18977.5391
2023-03-28T09:39:36.615Z,19002.7695
2023-03-28T09:40:37.988Z,18997.7695
2023-03-28T09:41:39.426Z,19006.6152
2023-03-28T09:42:40.846Z,19001.9238
2023-03-28T09:43:42.283Z,19004.2305
2023-03-28T09:44:52.921Z,19013.4609
2023-03-28T09:45:45.164Z,19008.1660
2023-03-28T09:46:46.590Z,19010.7695
2023-03-28T09:47:48.136Z,19003.0762
2023-03-28T09:48:49.652Z,18997.2305
2023-03-28T09:49:56.642Z,18994.0000
2023-03-28T09:50:52.258Z,18995.1660
2023-03-28T09:51:53.679Z,19007.1543
2023-03-28T09:52:55.104Z,19031.3848
2023-03-28T09:53:56.527Z,19001.4609
2023-03-28T09:54:57.981Z,19004.1543
2023-03-28T09:56:04.533Z,19005.7695
2023-03-28T09:57:00.832Z,18998.2500
2023-03-28T09:58:02.328Z,18985.3848
2023-03-28T09:59:03.642Z,18975.4609
2023-03-28T10:00:05.081Z,18958.2305
2023-03-28T10:01:06.517Z,18954.1543
2023-03-28T10:02:07.925Z,18939.7695
2023-03-28T10:03:09.377Z,18943.8457
2023-03-28T10:04:10.778Z,18940.6914
2023-03-28T10:05:12.259Z,18932.1543
2023-03-28T10:06:13.630Z,18927.6914
2023-03-28T10:07:15.058Z,18918.9238
2023-03-28T10:08:16.502Z,18923.9238
2023-03-28T10:09:17.924Z,18914.7695
2023-03-28T10:10:19.388Z,18909.3848
2023-03-28T10:11:20.881Z,18904.3848
2023-03-28T10:12:22.317Z,18903.1543
2023-03-28T10:13:23.743Z,18881.3848
2023-03-28T10:14:25.173Z,18875.9238
2023-03-28T10:15:26.681Z,18868.2305
2023-03-28T10:16:28.052Z,18870.7695
2023-03-28T10:17:29.464Z,18868.3848
2023-03-28T10:18:30.881Z,18868.8457
2023-03-28T10:19:32.297Z,18866.4609
2023-03-28T10:20:33.753Z,18865.8457
2023-03-28T10:21:35.153Z,18866.4609
2023-03-28T10:22:36.575Z,18866.0762
2023-03-28T10:23:37.994Z,18866.0762
2023-03-28T10:24:39.418Z,18863.7695
2023-03-28T10:25:40.842Z,18865.6914
2023-03-28T10:26:42.280Z,18863.1543
2023-03-28T10:27:43.678Z,18864.4609
2023-03-28T10:28:45.121Z,18858.9238
2023-03-28T10:29:46.528Z,18844.9238
2023-03-28T10:30:48.036Z,18841.3086
2023-03-28T10:31:49.389Z,18847.3086
2023-03-28T10:32:50.838Z,18836.4609
2023-03-28T10:33:52.226Z,18846.3848
2023-03-28T10:34:53.663Z,18841.3848
2023-03-28T10:35:55.111Z,18838.1543
2023-03-28T10:36:56.528Z,18830.6914
2023-03-28T10:37:57.945Z,18835.5391
2023-03-28T10:38:59.375Z,18837.5391
2023-03-28T10:40:00.864Z,18827.6152
2023-03-28T10:41:02.455Z,18813.0000
2023-03-28T10:42:03.644Z,18816.7695
2023-03-28T10:43:05.091Z,18824.2305
2023-03-28T10:44:06.517Z,18817.3848
2023-03-28T10:45:07.949Z,18816.8457
2023-03-28T10:46:09.402Z,18811.6914
2023-03-28T10:47:10.794Z,18813.4609
2023-03-28T10:48:12.212Z,18813.3086
2023-03-28T10:49:13.671Z,18816.0000
2023-03-28T10:50:15.061Z,18815.3086
2023-03-28T10:51:16.528Z,18816.7695
2023-03-28T10:52:17.920Z,18812.9238
2023-03-28T10:53:19.372Z,18812.3086
2023-03-28T10:54:20.775Z,18814.2305
2023-03-28T10:55:22.228Z,18813.0000
2023-03-28T10:56:23.632Z,18812.2305
2023-03-28T10:57:25.116Z,18816.1543
2023-03-28T10:58:26.564Z,18813.8457
2023-03-28T10:59:27.915Z,18813.0000
2023-03-28T11:00:29.348Z,18811.9238
2023-03-28T11:01:33.185Z,18811.4609
2023-03-28T11:02:32.315Z,18807.6152
2023-03-28T11:03:33.724Z,18809.5391
2023-03-28T11:04:35.047Z,18809.4609
2023-03-28T11:05:36.461Z,18807.0762
2023-03-28T11:06:37.892Z,18809.6152
2023-03-28T11:07:39.328Z,18805.3086
2023-03-28T11:08:40.760Z,18791.3848
2023-03-28T11:09:42.192Z,18764.6152
2023-03-28T11:10:43.603Z,18711.0762
2023-03-28T11:11:45.056Z,18727.1543
2023-03-28T11:13:47.893Z,18740.8457
2023-03-28T11:14:49.354Z,18747.3848
2023-03-28T11:15:50.792Z,18749.5391
2023-03-28T11:16:52.169Z,18749.0762
2023-03-28T11:17:53.663Z,18745.1543
2023-03-28T11:18:55.010Z,18741.0762
2023-03-28T11:19:56.443Z,18701.1543
2023-03-28T11:20:58.010Z,18731.6914
2023-03-28T11:21:59.275Z,18734.1543